TENO2: Tenkiller Lake

Data processed at Sat Mar 10 2018 23:36


All information presented herein is the property of the government of the United States of America and may be revised or deleted at any time without prior notice.
Dissemination of this information without the expressed written consent of the Public Affairs Office, Tulsa District U.S. Army Corps of Engineers is strictly prohibited.
These data are gathered electronically and, as presented, have not undergone any form of quality control. These data are not guaranteed to be valid or correct.
Go to home page.
Go to station list.

Upstream stations:

Downstream station:
Previous Day
Next Day
Current Day
    
SHEF ID:       TENO2     Tenkiller Lake
STATION TYPE:  Reservoir
Normal Pool:  Bottom =   594.50, Top =   632.00

               PRECIP PRECIP(A) ELEVATION   STORAGE   TW-ELEV    INFLOW   RELEASE  AIR-TEMP  WIND-DIRWIND-SPEED REL-HUMID SOLAR-RAD   VOLTAGE  BAT-LOAD
                   in        in        ft     ac-ft        ft       cfs       cfs         F       deg       mph         %      W/m2      volt      volt
              Ccp-Rev   Ccp-Rev   Ccp-Rev   Ccp-Rev   Ccp-Rev  Regi-Rev  Regi-Rev   Ccp-Rev   Ccp-Rev   Ccp-Rev   Ccp-Rev   Ccp-Rev   Ccp-Rev   Ccp-Rev
(US/Central)
03/08 00:00      0.00      0.00    639.82    775202    491.01       441     10079     32.07    266.80      0.42     89.06      0.00     13.74     13.30
03/08 01:00      0.00      0.00    639.78    774635    491.01       441     10075     30.97    269.70      0.38     91.08      1.00     13.73     13.24
03/08 02:00      0.00      0.00    639.73    773927    491.07       381     10075     30.76    266.30      0.41     93.64      1.00     13.73     13.24
03/08 03:00      0.00      0.00    639.69    773360    491.01       441     10075     29.98    267.90      0.39     93.58      1.00     13.74     13.24
03/08 04:00      0.00      0.00    639.64    772651    490.98       373     10075     29.55    273.70      0.39     97.18      0.00     13.74     13.12
03/08 05:00      0.00      0.00    639.60    772084    491.05       321     10075     29.55    264.00      0.39     99.19      0.00     13.73     13.24
03/08 06:00      0.00      0.00    639.55    771376    490.99       321     10075     29.23    270.70      0.39     99.19      0.00     13.73     13.24
03/08 07:00      0.00      0.00    639.49    770525    491.04       321     10075     28.67    254.90      0.54     99.26      2.00     13.73     13.18
03/08 08:00      0.00      0.00    639.45    769958    491.02       261     10075     34.93    246.40      0.87     96.02    114.00     13.73     13.18
03/08 09:00      0.00      0.00    639.40    769250    491.05       269     10075     40.77    156.50      2.62     63.06    316.00     13.73     13.18
03/08 10:00      0.00      0.00    639.35    768541    490.98       381     10075     42.96    144.00      4.41     52.31    515.00     13.73     13.18
03/08 11:00      0.00      0.00    639.30    767833    490.98       321     10075     45.81    125.50      4.58     41.08    629.00     13.73     13.18
03/08 12:00      0.00      0.00    639.26    767266    490.99       321     10075     49.23     91.50      3.69     40.41    652.00     13.73     13.18
03/08 13:00      0.00      0.00    639.21    766557    490.95       321     10075     50.86     92.40      4.57     38.58    573.00     13.73     13.18
03/08 14:00      0.00      0.00    639.16    765848    490.99       321     10075     54.16    219.50      2.15     29.42    605.00     13.73     13.18
03/08 15:00      0.00      0.00    639.11    765140    491.04       261     10075     55.49     96.80      3.21     31.93    658.00     13.73     13.18
03/08 16:00      0.00      0.00    639.06    764431    491.00       323     10075     58.23    263.40      0.96     18.68    500.00     13.73     13.18
03/08 17:00      0.00      0.00    639.01    763723    491.01       289     10075     56.25    213.10      0.58     29.18    307.00     13.73     13.18
03/08 18:00      0.00      0.00    638.97    763161    490.99       237     10075     54.93     93.70      2.69     34.24     68.00     13.73     13.24
03/08 19:00      0.00      0.00    638.93    762602    491.04       185     10075     49.44     92.80      0.74     49.69      5.00     13.73     13.30
03/08 20:00      0.00      0.00    638.88    761902    490.99       132     10075     50.65     69.80      1.61     34.86      0.00     13.73     13.24
03/08 21:00      0.00      0.00    638.83    761203    490.98        18     10075     42.75    251.20      0.59     64.64      0.00     13.74     13.24
03/08 22:00      0.00      0.00    638.77    760363    490.99         0     10075     49.66     22.50      1.88     38.76      0.00     13.73     13.24
03/08 23:00      0.00      0.00    638.73    759803    490.95         0     10075     48.13     57.50      3.52     53.05      1.00     13.74     13.24